Wetter EDVM 191220Z 26009KT 09/07 Q1000